Information Last Ob Photographs Meteogram Network Table Neighbors Monthly Summaries Observation History Wind Roses Custom Wind Roses Data Calendar Download

Most Recent Observation

This application displays the last observation received by the IEM from this site. The time stamp is in America/Chicago timezone.

Observation Local Time23 Oct 2018, 6:54 AM
Observation UTC Time2018-10-23T11:54:00Z
Air Temp [F]36
Maximum Air Temperature [F]48
Minimum Air Temperature [F]36
Dew Point [F]28.9
Wind Direction350
Wind Speed [knots]4
Altimeter [inches]30.33
Raw Observation/ProductKDSM 231154Z 35004KT 10SM FEW300 02/M02 A3033 RMK AO2 SLP276 T00221017 10089 20022 53009

This data was provided by a JSON(P) webservice. You can find more JSON services.